Time;durP1;ratioP1;P1;durP2;ratioP2;P2;SDS_P1;SDS_P2;PMS_P1;PMS_P2;Temp;Humidity;BMP_temperature;BMP_pressure;BME280_temperature;BME280_humidity;BME280_pressure;Samples;Min_cycle;Max_cycle;Signal;HPM_P1;HPM_P2
2022/07/03 00:02:25;;;;;;;5.03;4.63;;;;;;;16.36;83.49;101814.81;5017062;28;20149;-52
2022/07/03 00:04:52;;;;;;;4.63;4.32;;;;;;;16.31;83.52;101811.53;5017298;28;20422;-46
2022/07/03 00:07:18;;;;;;;7.40;4.90;;;;;;;16.25;83.71;101810.66;5016561;28;20055;-45
2022/07/03 00:09:45;;;;;;;5.30;4.82;;;;;;;16.19;83.81;101809.78;5016605;28;20058;-45
2022/07/03 00:12:12;;;;;;;5.22;4.72;;;;;;;16.15;83.94;101811.88;5016524;28;20046;-47
2022/07/03 00:14:38;;;;;;;6.20;4.75;;;;;;;16.09;83.93;101810.25;5016602;28;20046;-45
2022/07/03 00:17:05;;;;;;;5.28;4.70;;;;;;;16.05;84.02;101810.41;5016771;28;20054;-47
2022/07/03 00:19:31;;;;;;;5.30;4.85;;;;;;;16.03;84.30;101804.72;5014740;28;20066;-47
2022/07/03 00:22:09;;;;;;;5.60;5.10;;;;;;;15.96;84.21;101802.38;5016786;28;20054;-50
2022/07/03 00:24:44;;;;;;;5.25;4.85;;;;;;;15.85;84.72;101799.41;5016222;28;20062;-50
2022/07/03 00:27:14;;;;;;;5.43;4.93;;;;;;;15.83;84.58;101804.47;5016608;28;20077;-49
2022/07/03 00:29:43;;;;;;;6.78;5.05;;;;;;;15.78;84.52;101802.41;5016285;28;20054;-49
2022/07/03 00:32:12;;;;;;;5.43;4.88;;;;;;;15.70;84.76;101809.25;5016542;28;20506;-49
2022/07/03 00:34:40;;;;;;;5.43;4.68;;;;;;;15.60;85.18;101817.31;5016564;28;20051;-49
2022/07/03 00:37:08;;;;;;;6.72;4.97;;;;;;;15.59;85.45;101815.84;5016389;28;20055;-47
2022/07/03 00:39:41;;;;;;;5.75;4.78;;;;;;;15.60;85.62;101816.56;5015384;28;20055;-47
2022/07/03 00:42:09;;;;;;;5.65;5.20;;;;;;;15.57;85.58;101802.13;5016904;28;20054;-49
2022/07/03 00:44:44;;;;;;;7.05;4.90;;;;;;;15.55;85.36;101817.16;5015875;28;20058;-48
2022/07/03 00:47:15;;;;;;;5.07;4.68;;;;;;;15.44;85.91;101812.22;5016232;28;20054;-48
2022/07/03 00:49:45;;;;;;;5.72;5.00;;;;;;;15.37;85.98;101812.53;5016289;28;20080;-45
2022/07/03 00:52:14;;;;;;;6.43;4.80;;;;;;;15.30;86.34;101802.09;5015166;28;20050;-47
2022/07/03 00:54:50;;;;;;;7.82;5.07;;;;;;;15.33;86.07;101801.19;5016519;28;20495;-46
2022/07/03 00:57:17;;;;;;;5.40;5.00;;;;;;;15.28;86.04;101805.22;5016568;28;20519;-44
2022/07/03 00:59:44;;;;;;;6.65;4.70;;;;;;;15.27;86.05;101805.66;5015172;28;20057;-45
2022/07/03 01:02:34;;;;;;;4.80;4.40;;;;;;;15.22;86.02;101806.25;5016302;28;20046;-45
2022/07/03 01:05:06;;;;;;;4.97;4.57;;;;;;;15.18;85.97;101801.03;5016202;28;20141;-45
2022/07/03 01:07:56;;;;;;;5.05;4.55;;;;;;;15.14;86.16;101792.41;5016212;28;20050;-44
2022/07/03 01:10:31;;;;;;;5.18;4.40;;;;;;;15.09;86.27;101792.97;5015727;28;20065;-48
2022/07/03 01:13:36;;;;;;;5.07;4.50;;;;;;;15.09;85.92;101803.72;5015692;28;20050;-50
2022/07/03 01:16:24;;;;;;;5.32;4.82;;;;;;;14.98;86.50;101798.78;5016175;28;20062;-44
2022/07/03 01:19:09;;;;;;;6.45;4.30;;;;;;;14.92;86.55;101799.78;5015947;28;20459;-47
2022/07/03 01:22:13;;;;;;;4.90;4.50;;;;;;;14.86;86.68;101799.63;5016177;28;20109;-46
2022/07/03 01:25:02;;;;;;;9.02;4.68;;;;;;;14.88;86.57;101791.88;5015976;28;20050;-47
2022/07/03 01:27:34;;;;;;;4.53;4.13;;;;;;;14.85;86.73;101795.44;5015669;28;20058;-47
2022/07/03 01:30:01;;;;;;;6.18;4.63;;;;;;;14.78;86.98;101795.75;5015112;28;20051;-47
2022/07/03 01:32:31;;;;;;;6.47;3.83;;;;;;;14.76;87.02;101798.13;5016075;28;20051;-51
2022/07/03 01:35:01;;;;;;;5.00;4.07;;;;;;;14.73;87.09;101801.69;5013672;28;20065;-46
2022/07/03 01:37:30;;;;;;;4.47;4.10;;;;;;;14.72;87.15;101791.41;5015310;28;20270;-45
2022/07/03 01:39:58;;;;;;;6.65;4.35;;;;;;;14.72;87.16;101786.81;5015093;28;20058;-46
2022/07/03 01:42:25;;;;;;;7.70;4.00;;;;;;;14.72;87.02;101784.13;5015003;28;20058;-48
2022/07/03 01:44:53;;;;;;;5.05;3.97;;;;;;;14.70;86.93;101783.06;5015612;28;20138;-48
2022/07/03 01:47:22;;;;;;;7.88;3.67;;;;;;;14.65;87.07;101792.44;5015539;28;20054;-44
2022/07/03 01:49:54;;;;;;;5.15;3.88;;;;;;;14.62;87.28;101786.03;5015445;28;20074;-47
2022/07/03 01:52:21;;;;;;;4.03;3.63;;;;;;;14.62;86.97;101786.03;5014672;28;20054;-50
2022/07/03 01:55:09;;;;;;;4.25;3.95;;;;;;;14.59;87.08;101780.78;5015343;28;20054;-46
2022/07/03 01:57:50;;;;;;;5.43;4.65;;;;;;;14.56;86.76;101776.31;5014823;28;20061;-49
2022/07/03 02:00:22;;;;;;;4.50;4.13;;;;;;;14.51;87.12;101777.63;5015446;28;20050;-45
2022/07/03 02:02:56;;;;;;;;;;;;;;;14.49;86.33;101769.28;5014631;28;20051;-46
2022/07/03 02:05:47;;;;;;;7.43;4.00;;;;;;;14.45;86.89;101767.94;5014226;28;19932;-45
2022/07/03 02:08:29;;;;;;;6.78;4.20;;;;;;;14.41;87.13;101773.44;5015187;28;20108;-50
2022/07/03 02:11:11;;;;;;;4.57;3.97;;;;;;;14.33;87.31;101770.25;5015143;28;20055;-47
2022/07/03 02:13:48;;;;;;;3.95;3.65;;;;;;;14.24;88.17;101775.56;5015333;28;20057;-46
2022/07/03 02:16:19;;;;;;;4.15;3.85;;;;;;;14.18;87.93;101776.56;5015152;28;20050;-45
2022/07/03 02:18:56;;;;;;;3.80;3.60;;;;;;;14.16;88.29;101766.31;5014638;28;20062;-46
2022/07/03 02:21:27;;;;;;;5.07;4.03;;;;;;;14.17;88.31;101769.72;5014889;28;20057;-50
2022/07/03 02:24:12;;;;;;;5.35;4.32;;;;;;;14.16;87.94;101762.88;5014909;28;20050;-46
2022/07/03 02:26:40;;;;;;;7.55;4.20;;;;;;;14.15;88.60;101766.75;5014931;28;20061;-46
2022/07/03 02:29:17;;;;;;;4.25;3.83;;;;;;;14.13;88.25;101764.50;5015070;28;20058;-47
2022/07/03 02:31:45;;;;;;;4.32;3.92;;;;;;;14.10;88.44;101768.06;5014259;28;20056;-44
2022/07/03 02:34:22;;;;;;;4.22;3.80;;;;;;;14.07;88.70;101765.50;5014814;28;20054;-46
2022/07/03 02:36:50;;;;;;;3.95;3.70;;;;;;;14.05;88.91;101773.97;5013989;28;20050;-47
2022/07/03 02:39:32;;;;;;;3.92;3.63;;;;;;;14.01;88.90;101774.09;5014861;28;20062;-46
2022/07/03 02:42:02;;;;;;;4.10;3.70;;;;;;;14.00;89.53;101769.19;5014879;28;20422;-44
2022/07/03 02:44:40;;;;;;;4.40;4.00;;;;;;;14.01;89.40;101773.34;5014472;28;20503;-45
2022/07/03 02:47:13;;;;;;;3.83;3.63;;;;;;;13.97;89.62;101767.41;5014478;28;20063;-45
2022/07/03 02:50:05;;;;;;;4.65;4.25;;;;;;;13.98;89.42;101769.66;5012950;28;20060;-46
2022/07/03 02:52:37;;;;;;;7.38;4.05;;;;;;;13.97;89.24;101778.88;5014126;28;20507;-45
2022/07/03 02:55:42;;;;;;;4.00;3.70;;;;;;;14.00;89.09;101777.22;5014452;28;20530;-46
2022/07/03 02:58:45;;;;;;;4.05;3.65;;;;;;;13.97;89.36;101781.53;5015854;28;20059;-47
2022/07/03 03:01:33;;;;;;;4.30;3.90;;;;;;;13.89;90.02;101785.66;5013690;28;20054;-46
2022/07/03 03:04:18;;;;;;;4.90;3.90;;;;;;;13.92;89.63;101789.38;5014497;28;20050;-45
2022/07/03 03:06:52;;;;;;;4.20;3.80;;;;;;;13.91;89.88;101782.53;5014543;28;20054;-45
2022/07/03 03:09:24;;;;;;;4.35;4.00;;;;;;;13.87;90.57;101788.00;5013997;28;20060;-45
2022/07/03 03:11:52;;;;;;;4.97;4.45;;;;;;;13.90;90.31;101779.13;5013997;28;20069;-49
2022/07/03 03:14:20;;;;;;;4.47;4.15;;;;;;;13.96;90.46;101779.31;5016627;28;20046;-46
2022/07/03 03:16:50;;;;;;;6.78;4.25;;;;;;;14.00;89.90;101788.66;5017906;28;20608;-45
2022/07/03 03:19:21;;;;;;;5.25;4.47;;;;;;;14.06;90.17;101780.81;5016695;28;20509;-48
2022/07/03 03:21:58;;;;;;;4.53;4.20;;;;;;;14.09;90.10;101785.31;5017842;28;20061;-51
2022/07/03 03:24:26;;;;;;;4.50;4.00;;;;;;;14.12;90.64;101767.63;5017362;28;20046;-50
2022/07/03 03:26:52;;;;;;;5.78;3.92;;;;;;;14.16;90.15;101762.88;5016583;28;20054;-49
2022/07/03 03:29:19;;;;;;;4.38;4.07;;;;;;;14.21;89.88;101765.00;5017353;28;20046;-45
2022/07/03 03:31:45;;;;;;;4.13;3.83;;;;;;;14.24;90.13;101758.75;5017537;28;20061;-48
2022/07/03 03:34:13;;;;;;;4.57;4.20;;;;;;;14.30;90.29;101755.06;5017305;28;20061;-46
2022/07/03 03:36:40;;;;;;;5.40;4.05;;;;;;;14.38;89.38;101762.84;5017069;28;20050;-44
2022/07/03 03:39:06;;;;;;;4.72;4.25;;;;;;;14.46;89.67;101769.44;5016494;28;20050;-46
2022/07/03 03:41:33;;;;;;;4.32;4.00;;;;;;;14.53;89.50;101763.81;5016917;28;20892;-44
2022/07/03 03:44:00;;;;;;;6.28;3.58;;;;;;;14.56;88.33;101757.56;5017019;28;20494;-47
2022/07/03 03:46:26;;;;;;;4.35;3.78;;;;;;;14.54;88.18;101757.25;5017275;28;20053;-46
2022/07/03 03:48:53;;;;;;;4.68;4.07;;;;;;;14.55;88.92;101769.47;5017289;28;20061;-44
2022/07/03 03:51:19;;;;;;;4.32;4.03;;;;;;;14.60;88.73;101768.88;5016122;28;20499;-45
2022/07/03 03:53:46;;;;;;;4.05;3.70;;;;;;;14.60;88.57;101776.94;5017465;28;20130;-45
2022/07/03 03:56:17;;;;;;;3.90;3.65;;;;;;;14.60;88.01;101769.63;5017438;28;20109;-44
2022/07/03 03:58:44;;;;;;;6.85;3.85;;;;;;;14.53;88.50;101780.63;5017130;28;20415;-44
2022/07/03 04:01:11;;;;;;;8.27;3.90;;;;;;;14.48;88.43;101783.88;5015851;28;20065;-46
2022/07/03 04:03:39;;;;;;;4.10;3.70;;;;;;;14.46;88.77;101778.22;5016719;28;20105;-46
2022/07/03 04:06:05;;;;;;;4.22;3.92;;;;;;;14.45;88.97;101779.41;5014572;28;20057;-44
2022/07/03 04:08:32;;;;;;;4.88;4.40;;;;;;;14.46;87.80;101777.47;5016881;28;20419;-44
2022/07/03 04:10:59;;;;;;;4.13;3.72;;;;;;;14.47;88.51;101776.28;5016616;28;20513;-46
2022/07/03 04:13:26;;;;;;;5.53;3.80;;;;;;;14.49;88.72;101784.63;5016960;28;20561;-44
2022/07/03 04:15:54;;;;;;;3.67;3.38;;;;;;;14.54;88.41;101792.09;5016205;28;20053;-46
2022/07/03 04:18:22;;;;;;;5.03;3.75;;;;;;;14.58;88.67;101773.94;5016651;28;20109;-46
2022/07/03 04:20:48;;;;;;;5.55;3.90;;;;;;;14.63;88.16;101770.69;5016708;28;20166;-45
2022/07/03 04:23:15;;;;;;;5.13;4.10;;;;;;;14.68;87.71;101770.13;5015874;28;20050;-44
2022/07/03 04:25:41;;;;;;;4.32;3.90;;;;;;;14.78;87.53;101777.00;5015686;28;20054;-45
2022/07/03 04:28:08;;;;;;;7.07;3.70;;;;;;;14.89;87.78;101771.19;5016307;28;20055;-47
2022/07/03 04:30:45;;;;;;;3.85;3.55;;;;;;;15.00;87.00;101774.19;5015518;28;20054;-44
2022/07/03 04:33:11;;;;;;;3.90;3.60;;;;;;;15.09;87.12;101771.53;5016129;28;20499;-45
2022/07/03 04:35:38;;;;;;;3.92;3.63;;;;;;;15.16;84.43;101773.94;5016441;28;20051;-49
2022/07/03 04:38:04;;;;;;;5.57;3.67;;;;;;;15.26;86.29;101777.34;5016496;28;20054;-44
2022/07/03 04:40:31;;;;;;;4.40;4.00;;;;;;;15.29;84.10;101779.88;5015366;28;20057;-46
2022/07/03 04:42:57;;;;;;;3.65;3.35;;;;;;;15.38;85.04;101781.81;5016513;28;20055;-46
2022/07/03 04:45:23;;;;;;;5.05;3.47;;;;;;;15.45;85.16;101786.16;5015770;28;20522;-45
2022/07/03 04:47:50;;;;;;;3.42;3.22;;;;;;;15.49;85.57;101784.81;5016415;28;20077;-45
2022/07/03 04:50:16;;;;;;;7.20;3.60;;;;;;;15.57;83.98;101787.97;5015556;28;20062;-44
2022/07/03 04:52:42;;;;;;;4.20;3.80;;;;;;;15.62;84.16;101790.78;5016401;28;20061;-45
2022/07/03 04:55:09;;;;;;;4.13;3.47;;;;;;;15.70;83.88;101793.16;5015825;28;20488;-50
2022/07/03 04:57:36;;;;;;;4.72;3.50;;;;;;;15.75;82.28;101793.31;5016261;28;20078;-46
2022/07/03 05:00:05;;;;;;;3.47;3.28;;;;;;;15.89;81.51;101790.00;5014099;28;20055;-49
2022/07/03 05:02:32;;;;;;;3.58;3.28;;;;;;;16.04;79.96;101786.69;5016132;28;20047;-49
2022/07/03 05:04:58;;;;;;;3.78;3.42;;;;;;;16.16;79.53;101791.13;5014294;28;20489;-48
2022/07/03 05:07:24;;;;;;;7.65;3.60;;;;;;;16.24;80.36;101792.28;5014579;28;20046;-45
2022/07/03 05:09:52;;;;;;;4.72;3.50;;;;;;;16.42;79.72;101796.84;5014858;28;20050;-47
2022/07/03 05:12:18;;;;;;;3.10;2.90;;;;;;;16.57;78.85;101798.44;5013433;28;20051;-49
2022/07/03 05:14:45;;;;;;;3.47;3.00;;;;;;;16.69;79.40;101804.81;5013924;28;20077;-46
2022/07/03 05:17:11;;;;;;;3.22;2.83;;;;;;;16.80;78.47;101796.97;5013973;28;20047;-45
2022/07/03 05:19:38;;;;;;;4.05;2.80;;;;;;;17.04;77.90;101810.44;5014026;28;20495;-49
2022/07/03 05:22:05;;;;;;;3.05;2.60;;;;;;;17.27;75.90;101803.56;5015782;28;20513;-48
2022/07/03 05:24:31;;;;;;;3.03;2.67;;;;;;;17.42;74.80;101807.03;5015660;28;20075;-49
2022/07/03 05:26:57;;;;;;;4.85;2.60;;;;;;;17.65;74.56;101806.25;5015037;28;20065;-46
2022/07/03 05:29:24;;;;;;;4.68;2.55;;;;;;;17.78;74.28;101808.69;5015333;28;20061;-44
2022/07/03 05:31:50;;;;;;;6.05;2.10;;;;;;;17.86;74.96;101815.19;5015004;28;20061;-47
2022/07/03 05:34:17;;;;;;;2.97;2.13;;;;;;;18.27;74.56;101809.97;5013637;28;20050;-46
2022/07/03 05:36:43;;;;;;;7.35;2.05;;;;;;;20.98;63.93;101815.13;5013317;28;20054;-45
2022/07/03 05:41:55;;;;;;;3.75;2.05;;;;;;;23.98;53.58;101833.34;4994320;28;20859;-45
2022/07/03 05:44:21;;;;;;;2.67;1.52;;;;;;;26.52;46.74;101825.47;4995353;28;20086;-45
2022/07/03 05:46:47;;;;;;;2.00;1.70;;;;;;;27.39;42.91;101819.97;4995315;28;20055;-45
2022/07/03 05:49:14;;;;;;;2.33;1.60;;;;;;;27.05;43.71;101817.25;4995637;28;20058;-45
2022/07/03 05:51:40;;;;;;;2.83;1.50;;;;;;;25.54;46.39;101823.41;4995549;28;20061;-45
2022/07/03 05:54:08;;;;;;;2.50;1.17;;;;;;;25.33;47.13;101822.44;4995526;28;20050;-46
2022/07/03 05:56:34;;;;;;;4.05;1.60;;;;;;;25.07;48.16;101827.78;4994546;28;20146;-51
2022/07/03 05:59:01;;;;;;;2.38;1.70;;;;;;;23.55;51.75;101825.00;4995535;28;20047;-52
2022/07/03 06:01:27;;;;;;;2.47;1.42;;;;;;;24.85;48.04;101828.75;4995586;28;20046;-50
2022/07/03 06:03:53;;;;;;;1.67;1.33;;;;;;;25.40;47.83;101832.03;4995275;28;20047;-48
2022/07/03 06:06:20;;;;;;;2.30;1.77;;;;;;;27.71;43.09;101828.66;4995436;28;20055;-48
2022/07/03 06:08:46;;;;;;;3.28;1.65;;;;;;;29.42;38.28;101831.94;4994706;28;20055;-51
2022/07/03 06:11:13;;;;;;;3.15;1.63;;;;;;;30.46;36.56;101827.47;4994838;28;20494;-49
2022/07/03 06:13:39;;;;;;;2.17;1.40;;;;;;;31.17;34.42;101823.34;4995298;28;20098;-49
2022/07/03 06:16:05;;;;;;;2.47;1.63;;;;;;;30.69;34.96;101822.66;4995520;28;20051;-49
2022/07/03 06:18:32;;;;;;;3.80;1.80;;;;;;;30.47;35.14;101834.41;4995418;28;20082;-50
2022/07/03 06:20:58;;;;;;;4.43;1.65;;;;;;;31.10;34.74;101834.34;4994786;28;20603;-49
2022/07/03 06:23:25;;;;;;;3.22;1.45;;;;;;;31.63;34.41;101833.25;4995293;28;20047;-49
2022/07/03 06:26:11;;;;;;;5.25;1.60;;;;;;;31.19;34.37;101824.81;4995315;28;20049;-49
2022/07/03 06:28:37;;;;;;;2.60;1.60;;;;;;;31.67;34.41;101828.09;4994254;28;20495;-47
2022/07/03 06:31:04;;;;;;;1.85;1.45;;;;;;;32.04;33.09;101829.06;4994517;28;20063;-49
2022/07/03 06:33:30;;;;;;;3.05;1.65;;;;;;;32.61;33.14;101836.38;4995219;28;20059;-51
2022/07/03 06:35:57;;;;;;;3.50;1.40;;;;;;;32.28;32.27;101835.84;4995002;28;20073;-47
2022/07/03 06:38:23;;;;;;;2.90;1.60;;;;;;;32.56;33.12;101834.59;4994230;28;20055;-45
2022/07/03 06:40:50;;;;;;;2.08;1.40;;;;;;;32.94;32.18;101828.59;5005334;28;20069;-46
2022/07/03 06:43:16;;;;;;;2.47;1.33;;;;;;;32.94;32.42;101842.41;5014671;28;20047;-49
2022/07/03 06:45:43;;;;;;;4.18;1.50;;;;;;;33.26;32.42;101835.84;5014529;28;20481;-46
2022/07/03 06:48:09;;;;;;;4.03;1.60;;;;;;;33.77;30.21;101837.63;5013047;28;20109;-46
2022/07/03 06:50:36;;;;;;;5.30;1.50;;;;;;;33.88;31.02;101847.44;5014219;28;20055;-48
2022/07/03 06:53:02;;;;;;;3.38;1.35;;;;;;;34.02;30.89;101848.44;5013823;28;20558;-46
2022/07/03 06:55:29;;;;;;;2.20;1.40;;;;;;;34.07;29.98;101845.41;5014305;28;20058;-49
2022/07/03 06:57:55;;;;;;;2.30;1.45;;;;;;;33.49;30.80;101847.31;5014520;28;20058;-49
2022/07/03 07:00:21;;;;;;;2.40;1.40;;;;;;;33.22;31.71;101841.06;5013282;28;20054;-47
2022/07/03 07:02:48;;;;;;;6.55;1.80;;;;;;;33.22;31.73;101841.06;5014253;28;20062;-46
2022/07/03 07:05:14;;;;;;;3.75;1.60;;;;;;;32.75;31.34;101848.53;5014385;28;20055;-49
2022/07/03 07:07:40;;;;;;;2.17;1.38;;;;;;;32.71;32.75;101843.41;5013644;28;20117;-51
2022/07/03 07:10:07;;;;;;;2.75;1.10;;;;;;;32.95;31.39;101841.09;5014341;28;20054;-48
2022/07/03 07:12:34;;;;;;;3.63;1.50;;;;;;;32.29;32.55;101834.53;5013996;28;20050;-50
2022/07/03 07:15:04;;;;;;;3.35;1.77;;;;;;;32.56;32.26;101840.09;5013573;28;20086;-50
2022/07/03 07:17:31;;;;;;;2.78;1.40;;;;;;;32.61;31.98;101828.09;5013874;28;20064;-50
2022/07/03 07:19:57;;;;;;;3.88;1.58;;;;;;;33.03;30.51;101822.41;5013809;28;20055;-48
2022/07/03 07:22:25;;;;;;;2.90;1.52;;;;;;;32.56;31.66;101832.56;5014210;28;20186;-49
2022/07/03 07:24:52;;;;;;;3.40;1.65;;;;;;;32.11;32.73;101834.50;5013553;28;20050;-47
2022/07/03 07:27:19;;;;;;;2.40;1.70;;;;;;;32.65;31.83;101833.94;5013992;28;20066;-51
2022/07/03 07:29:45;;;;;;;2.53;1.40;;;;;;;32.58;32.30;101834.75;5013880;28;20081;-49
2022/07/03 07:32:12;;;;;;;3.58;1.42;;;;;;;32.90;32.48;101831.06;5013687;28;20050;-50
2022/07/03 07:34:38;;;;;;;4.90;1.40;;;;;;;32.89;32.44;101840.63;5013155;28;20050;-49
2022/07/03 07:37:05;;;;;;;2.17;1.45;;;;;;;32.27;31.48;101837.88;5013935;28;20064;-50
2022/07/03 07:39:31;;;;;;;2.00;1.40;;;;;;;29.78;35.86;101847.50;5013359;28;20061;-51
2022/07/03 07:41:58;;;;;;;4.82;1.55;;;;;;;29.68;37.66;101847.31;5013835;28;20061;-48
2022/07/03 07:44:24;;;;;;;2.42;1.45;;;;;;;29.09;37.85;101857.63;5013803;28;20066;-46
2022/07/03 07:46:51;;;;;;;2.95;1.25;;;;;;;28.86;38.59;101855.53;5008894;28;20061;-48
2022/07/03 07:49:17;;;;;;;3.88;1.50;;;;;;;27.84;38.54;101855.94;5013095;28;20050;-46
2022/07/03 07:51:44;;;;;;;1.63;1.30;;;;;;;26.66;42.93;101859.72;5012469;28;20066;-46
2022/07/03 07:54:10;;;;;;;2.20;1.42;;;;;;;26.04;45.57;101857.31;5011699;28;20050;-47
2022/07/03 07:56:37;;;;;;;2.75;1.55;;;;;;;26.80;44.53;101865.91;5006226;28;20081;-50
2022/07/03 07:59:03;;;;;;;3.30;1.50;;;;;;;26.75;43.36;101859.31;5011211;28;20047;-45
2022/07/03 08:06:59;;;;;;;3.15;1.30;;;;;;;28.86;39.03;101863.75;5016499;28;20062;-49
2022/07/03 08:09:25;;;;;;;4.40;1.40;;;;;;;29.62;36.66;101870.72;5016283;28;20050;-46
2022/07/03 08:11:52;;;;;;;2.10;1.20;;;;;;;28.99;39.84;101871.09;5015744;28;20050;-50
2022/07/03 08:14:18;;;;;;;1.80;1.40;;;;;;;28.93;41.09;101870.53;5016337;28;20146;-48
2022/07/03 08:16:46;;;;;;;3.17;1.70;;;;;;;28.25;42.84;101862.66;5016430;28;20066;-47
2022/07/03 08:19:13;;;;;;;3.22;1.20;;;;;;;28.41;38.92;101866.94;5015655;28;20055;-47
2022/07/03 08:21:40;;;;;;;2.75;1.30;;;;;;;29.07;39.18;101876.63;5016280;28;20082;-46
2022/07/03 08:24:07;;;;;;;2.03;1.33;;;;;;;29.11;37.05;101874.25;5016017;28;20057;-47
2022/07/03 08:26:33;;;;;;;2.28;1.45;;;;;;;28.04;38.97;101870.88;5015275;28;20573;-45
2022/07/03 08:29:00;;;;;;;4.43;1.30;;;;;;;27.54;41.00;101870.06;5015801;28;20046;-48
2022/07/03 08:31:26;;;;;;;2.25;1.30;;;;;;;27.29;42.62;101870.88;5015868;28;20047;-46
2022/07/03 08:33:53;;;;;;;5.10;1.60;;;;;;;28.51;39.19;101875.41;5015917;28;20057;-48
2022/07/03 08:36:19;;;;;;;4.68;1.63;;;;;;;28.43;40.88;101875.38;5015347;28;20517;-46
2022/07/03 08:38:46;;;;;;;3.53;1.50;;;;;;;28.81;41.52;101872.09;5015545;28;20149;-46
2022/07/03 08:41:13;;;;;;;4.05;1.50;;;;;;;29.09;37.99;101874.81;5015006;28;20050;-46
2022/07/03 08:43:42;;;;;;;4.25;1.60;;;;;;;28.32;40.25;101872.94;5015485;28;20062;-48
2022/07/03 08:46:11;;;;;;;2.42;1.50;;;;;;;28.24;39.78;101871.41;5015576;28;20050;-46
2022/07/03 08:48:38;;;;;;;2.75;1.20;;;;;;;27.50;42.49;101869.66;5015784;28;20051;-44
2022/07/03 08:51:05;;;;;;;2.05;1.20;;;;;;;28.58;41.77;101876.72;5015011;28;20057;-49
2022/07/03 08:53:32;;;;;;;2.88;1.25;;;;;;;28.74;39.14;101870.81;5014787;28;20061;-46
2022/07/03 08:56:00;;;;;;;1.58;1.20;;;;;;;28.95;38.33;101862.50;5015912;28;20051;-48
2022/07/03 08:58:29;;;;;;;5.10;1.38;;;;;;;28.35;38.28;101866.38;5015891;28;20058;-50
2022/07/03 09:00:56;;;;;;;1.40;1.23;;;;;;;29.08;42.17;101862.38;5015732;28;20050;-46
2022/07/03 09:03:24;;;;;;;1.70;1.40;;;;;;;29.27;37.88;101851.06;5015656;28;20522;-46
2022/07/03 09:05:51;;;;;;;1.27;1.17;;;;;;;28.56;39.09;101863.56;5015544;28;20062;-46
2022/07/03 09:08:18;;;;;;;1.98;1.40;;;;;;;27.99;42.27;101857.34;5014560;28;20097;-47
2022/07/03 09:10:45;;;;;;;4.47;1.50;;;;;;;28.53;39.01;101870.13;5015683;28;20054;-46
2022/07/03 09:13:11;;;;;;;2.05;1.50;;;;;;;27.42;42.89;101862.63;5015799;28;20054;-47
2022/07/03 09:15:38;;;;;;;5.25;1.50;;;;;;;28.25;41.23;101857.19;5011757;28;20069;-47
2022/07/03 09:18:06;;;;;;;1.60;1.27;;;;;;;29.42;41.70;101847.66;5015295;28;20050;-49
2022/07/03 09:20:38;;;;;;;2.97;1.30;;;;;;;30.40;39.60;101848.91;5013210;28;20046;-49
2022/07/03 09:23:10;;;;;;;2.30;1.27;;;;;;;30.36;36.87;101846.56;5013984;28;20058;-50
2022/07/03 09:25:53;;;;;;;2.97;1.38;;;;;;;30.45;38.94;101848.72;5014659;28;20069;-50
2022/07/03 09:28:21;;;;;;;3.85;1.85;;;;;;;28.81;39.88;101855.66;5014690;28;20495;-50
2022/07/03 09:30:59;;;;;;;2.05;1.30;;;;;;;28.09;42.46;101853.56;5012663;28;20047;-48
2022/07/03 09:33:26;;;;;;;3.25;1.42;;;;;;;27.50;41.49;101858.72;5014442;28;20061;-50
2022/07/03 09:35:54;;;;;;;1.45;1.30;;;;;;;27.01;43.91;101855.81;5013895;28;20061;-51
2022/07/03 09:38:21;;;;;;;2.33;1.25;;;;;;;28.45;41.86;101853.66;5014420;28;20050;-46
2022/07/03 09:40:56;;;;;;;1.75;1.50;;;;;;;29.72;36.98;101849.69;5011956;28;20074;-45
2022/07/03 09:43:30;;;;;;;2.13;1.13;;;;;;;30.15;34.77;101840.53;5012246;28;20049;-46
2022/07/03 09:46:03;;;;;;;1.40;1.30;;;;;;;30.31;35.99;101842.00;5014138;28;20073;-46
2022/07/03 09:48:32;;;;;;;2.15;1.20;;;;;;;30.85;39.98;101848.75;5014498;28;20094;-45
2022/07/03 09:51:23;;;;;;;2.50;1.30;;;;;;;31.56;35.48;101845.09;5012848;28;20083;-48
2022/07/03 09:53:57;;;;;;;3.55;1.45;;;;;;;31.81;33.35;101851.31;5014222;28;20082;-47
2022/07/03 09:56:35;;;;;;;1.00;1.00;;;;;;;31.52;34.11;101853.72;5012072;28;20054;-46
2022/07/03 09:59:13;;;;;;;3.10;1.55;;;;;;;31.62;33.15;101849.03;5013772;28;20076;-47
2022/07/03 10:01:41;;;;;;;1.42;1.33;;;;;;;31.19;36.21;101852.31;5013742;28;20047;-47
2022/07/03 10:04:18;;;;;;;1.90;1.60;;;;;;;31.87;38.21;101860.06;5012525;28;20172;-47
2022/07/03 10:07:03;;;;;;;2.90;1.40;;;;;;;31.62;37.08;101862.81;5014037;28;20050;-51
2022/07/03 10:09:31;;;;;;;1.80;1.70;;;;;;;30.22;37.64;101852.81;5013129;28;20055;-51
2022/07/03 10:11:59;;;;;;;1.95;1.63;;;;;;;30.82;36.02;101858.13;5012346;28;20059;-49
2022/07/03 10:14:28;;;;;;;4.85;1.77;;;;;;;29.56;39.20;101850.97;5012057;28;20061;-49
2022/07/03 10:16:59;;;;;;;1.80;1.70;;;;;;;29.49;40.70;101849.69;5010763;28;20454;-50
2022/07/03 10:19:27;;;;;;;2.50;1.42;;;;;;;30.90;39.59;101846.38;5012884;28;20050;-49
2022/07/03 10:22:00;;;;;;;2.58;1.30;;;;;;;30.20;38.47;101850.59;5014156;28;20058;-47
2022/07/03 10:24:29;;;;;;;1.77;1.10;;;;;;;29.27;40.19;101842.13;5012544;28;20497;-49
2022/07/03 10:26:58;;;;;;;1.40;1.30;;;;;;;28.77;36.71;101845.06;5012819;28;20518;-51
2022/07/03 10:29:28;;;;;;;1.70;1.10;;;;;;;28.52;38.87;101849.50;5013160;28;20047;-49
2022/07/03 10:31:57;;;;;;;2.65;1.30;;;;;;;28.21;38.24;101845.84;5012668;28;20545;-49
2022/07/03 10:34:25;;;;;;;1.85;1.50;;;;;;;27.70;41.34;101854.53;5013341;28;20475;-48
2022/07/03 10:36:57;;;;;;;1.40;1.30;;;;;;;27.09;45.90;101853.19;5013606;28;20074;-49
2022/07/03 10:39:40;;;;;;;1.40;1.13;;;;;;;26.76;45.83;101849.13;5012164;28;20081;-50
2022/07/03 10:45:09;;;;;;;1.45;1.35;;;;;;;26.96;43.35;101845.72;5013229;28;20050;-51
2022/07/03 10:47:44;;;;;;;3.03;1.20;;;;;;;26.89;44.95;101855.28;5013101;28;20178;-53
2022/07/03 10:50:16;;;;;;;5.70;1.33;;;;;;;26.95;46.24;101859.91;5009456;28;20047;-47
2022/07/03 10:52:44;;;;;;;2.10;1.17;;;;;;;26.66;42.27;101857.00;5013004;28;20459;-48
2022/07/03 10:55:14;;;;;;;1.85;1.00;;;;;;;26.90;43.42;101867.66;5012121;28;20133;-48
2022/07/03 10:57:42;;;;;;;4.43;1.23;;;;;;;27.64;44.33;101866.88;5012885;28;20166;-47
2022/07/03 11:00:17;;;;;;;2.13;1.13;;;;;;;27.36;42.01;101878.44;5010199;28;20046;-49
2022/07/03 11:02:46;;;;;;;2.67;1.10;;;;;;;26.61;43.88;101873.47;5012199;28;20521;-47
2022/07/03 11:05:36;;;;;;;1.73;1.15;;;;;;;25.89;44.26;101870.72;5012449;28;20062;-50
2022/07/03 11:08:04;;;;;;;1.30;1.15;;;;;;;25.37;44.20;101871.94;5012351;28;20054;-48
2022/07/03 11:10:33;;;;;;;1.98;1.10;;;;;;;25.63;47.70;101870.59;5011462;28;20439;-48
2022/07/03 11:13:03;;;;;;;2.60;1.08;;;;;;;25.98;43.76;101866.88;5026648;28;20487;-48
2022/07/03 11:15:53;;;;;;;1.88;1.30;;;;;;;26.07;44.71;101869.19;5009157;28;20054;-52
2022/07/03 11:18:32;;;;;;;1.95;0.90;;;;;;;25.66;46.22;101872.31;5011845;28;20065;-51
2022/07/03 11:21:13;;;;;;;1.50;1.38;;;;;;;25.37;47.65;101888.31;5010050;28;20081;-51
2022/07/03 11:23:43;;;;;;;4.53;1.10;;;;;;;24.76;49.83;101889.75;5011394;28;20051;-48
2022/07/03 11:26:21;;;;;;;1.50;1.08;;;;;;;24.13;50.97;101887.34;5012097;28;20506;-47
2022/07/03 11:28:49;;;;;;;1.20;1.10;;;;;;;23.72;51.03;101879.25;5011897;28;20064;-49
2022/07/03 11:31:18;;;;;;;2.15;0.90;;;;;;;23.01;55.64;101885.25;5012203;28;20505;-52
2022/07/03 11:33:56;;;;;;;2.25;1.08;;;;;;;22.83;55.11;101886.53;5010876;28;20059;-51
2022/07/03 11:36:25;;;;;;;1.33;1.23;;;;;;;22.76;58.19;101883.59;5013747;28;20062;-46
2022/07/03 11:38:54;;;;;;;1.27;1.08;;;;;;;22.73;56.11;101885.31;5015550;28;20055;-51
2022/07/03 11:41:22;;;;;;;1.63;1.30;;;;;;;23.32;55.63;101884.13;5013897;28;20076;-49
2022/07/03 11:43:50;;;;;;;1.75;1.30;;;;;;;23.98;55.68;101892.44;5015523;28;20057;-53
2022/07/03 11:46:21;;;;;;;2.45;1.50;;;;;;;25.66;50.07;101875.78;5014291;28;20058;-51
2022/07/03 11:48:48;;;;;;;1.40;1.30;;;;;;;26.49;49.91;101876.41;5016214;28;20553;-53
2022/07/03 11:51:15;;;;;;;2.65;1.70;;;;;;;27.00;47.99;101873.47;5015488;28;20090;-50